createdAt,value
2022-09-29T00:00:50.037Z,21.83
2022-09-29T00:03:18.127Z,21.81
2022-09-29T00:05:54.055Z,21.81
2022-09-29T00:08:23.370Z,21.81
2022-09-29T00:10:51.368Z,21.80
2022-09-29T00:13:19.121Z,21.82
2022-09-29T00:16:04.161Z,21.80
2022-09-29T00:18:33.679Z,21.80
2022-09-29T00:21:03.484Z,21.79
2022-09-29T00:23:32.930Z,21.80
2022-09-29T00:26:08.000Z,21.79
2022-09-29T00:28:37.046Z,21.80
2022-09-29T00:31:05.950Z,21.80
2022-09-29T00:33:35.338Z,21.79
2022-09-29T00:36:05.886Z,21.80
2022-09-29T00:38:34.394Z,21.79
2022-09-29T00:41:01.955Z,21.79
2022-09-29T00:43:48.334Z,21.79
2022-09-29T00:46:21.012Z,21.79
2022-09-29T00:48:48.907Z,21.80
2022-09-29T00:51:17.337Z,21.79
2022-09-29T00:53:45.327Z,21.78
2022-09-29T00:56:15.447Z,21.78
2022-09-29T00:58:50.433Z,21.77
2022-09-29T01:01:17.744Z,21.79
2022-09-29T01:03:46.724Z,21.78
2022-09-29T01:06:22.014Z,21.78
2022-09-29T01:08:58.036Z,21.78
2022-09-29T01:11:25.603Z,21.78
2022-09-29T01:13:54.717Z,21.76
2022-09-29T01:16:21.954Z,21.78
2022-09-29T01:18:50.006Z,21.78
2022-09-29T01:21:29.718Z,21.78
2022-09-29T01:24:24.257Z,21.77
2022-09-29T01:27:16.658Z,21.77
2022-09-29T01:30:05.449Z,21.76
2022-09-29T01:32:51.434Z,21.77
2022-09-29T01:35:24.741Z,21.77
2022-09-29T01:38:04.308Z,21.78
2022-09-29T01:40:50.287Z,21.77
2022-09-29T01:43:24.128Z,21.77
2022-09-29T01:45:59.485Z,21.77
2022-09-29T01:48:31.409Z,21.76
2022-09-29T01:51:03.863Z,21.76
2022-09-29T01:53:38.140Z,21.76
2022-09-29T01:56:31.080Z,21.76
2022-09-29T01:59:09.560Z,21.76
2022-09-29T02:01:43.725Z,21.75
2022-09-29T02:04:24.500Z,21.77
2022-09-29T02:07:01.633Z,21.76
2022-09-29T02:09:35.851Z,21.75
2022-09-29T02:12:04.840Z,21.75
2022-09-29T02:14:39.961Z,21.75
2022-09-29T02:17:12.847Z,21.75
2022-09-29T02:19:43.722Z,21.75
2022-09-29T02:22:10.988Z,21.75
2022-09-29T02:24:38.490Z,21.75
2022-09-29T02:27:06.447Z,21.73
2022-09-29T02:29:36.127Z,21.75
2022-09-29T02:32:06.067Z,21.76
2022-09-29T02:34:41.482Z,21.75
2022-09-29T02:37:17.366Z,21.74
2022-09-29T02:39:44.667Z,21.75
2022-09-29T02:42:46.218Z,21.73
2022-09-29T02:45:25.553Z,21.74
2022-09-29T02:48:04.795Z,21.72
2022-09-29T02:50:47.376Z,21.73
2022-09-29T02:53:47.090Z,21.72
2022-09-29T02:56:20.388Z,21.74
2022-09-29T02:59:09.277Z,21.72
2022-09-29T03:01:48.718Z,21.73
2022-09-29T03:04:16.280Z,21.74
2022-09-29T03:06:43.643Z,21.73
2022-09-29T03:09:11.184Z,21.75
2022-09-29T03:11:38.619Z,21.73
2022-09-29T03:14:06.721Z,21.73
2022-09-29T03:16:35.368Z,21.73
2022-09-29T03:19:04.215Z,21.72
2022-09-29T03:21:35.194Z,21.73
2022-09-29T03:24:02.888Z,21.73
2022-09-29T03:26:30.274Z,21.73
2022-09-29T03:28:57.839Z,21.72
2022-09-29T03:31:25.103Z,21.73
2022-09-29T03:33:52.393Z,21.73
2022-09-29T03:36:19.677Z,21.72
2022-09-29T03:38:47.348Z,21.72
2022-09-29T03:41:14.871Z,21.73
2022-09-29T03:43:42.203Z,21.71
2022-09-29T03:46:09.640Z,21.73
2022-09-29T03:48:36.972Z,21.72
2022-09-29T03:51:04.476Z,21.72
2022-09-29T03:53:33.544Z,21.70
2022-09-29T03:56:01.179Z,21.71
2022-09-29T03:58:28.579Z,21.72
2022-09-29T04:00:55.818Z,21.72
2022-09-29T04:03:23.056Z,21.71
2022-09-29T04:05:50.455Z,21.72
2022-09-29T04:08:17.774Z,21.74
2022-09-29T04:10:47.797Z,21.73
2022-09-29T04:13:19.903Z,21.72
2022-09-29T04:15:50.523Z,21.72
2022-09-29T04:18:17.892Z,21.71
2022-09-29T04:20:45.129Z,21.72
2022-09-29T04:23:12.781Z,21.72
2022-09-29T04:25:40.094Z,21.72
2022-09-29T04:28:07.385Z,21.72
2022-09-29T04:30:34.772Z,21.72
2022-09-29T04:33:02.049Z,21.71
2022-09-29T04:35:33.604Z,21.71
2022-09-29T04:38:03.360Z,21.70
2022-09-29T04:40:30.803Z,21.70
2022-09-29T04:42:58.091Z,21.69
2022-09-29T04:45:25.299Z,21.69
2022-09-29T04:47:52.500Z,21.70
2022-09-29T04:50:19.905Z,21.69
2022-09-29T04:52:47.057Z,21.69
2022-09-29T04:55:14.365Z,21.69
2022-09-29T04:57:43.284Z,21.68
2022-09-29T05:00:12.047Z,21.69
2022-09-29T05:02:39.380Z,21.68
2022-09-29T05:05:07.811Z,21.69
2022-09-29T05:07:35.412Z,21.68
2022-09-29T05:10:03.391Z,21.68
2022-09-29T05:12:30.724Z,21.66
2022-09-29T05:14:58.108Z,21.67
2022-09-29T05:17:25.381Z,21.67
2022-09-29T05:19:52.605Z,21.67
2022-09-29T05:22:24.367Z,21.66
2022-09-29T05:24:52.239Z,21.67
2022-09-29T05:27:20.035Z,21.66
2022-09-29T05:29:47.251Z,21.66
2022-09-29T05:32:14.505Z,21.68
2022-09-29T05:34:42.130Z,21.67
2022-09-29T05:37:09.911Z,21.66
2022-09-29T05:39:37.717Z,21.65
2022-09-29T05:42:06.558Z,21.65
2022-09-29T05:44:33.917Z,21.66
2022-09-29T05:47:01.252Z,21.66
2022-09-29T05:49:28.563Z,21.66
2022-09-29T05:51:55.786Z,21.64
2022-09-29T05:54:24.053Z,21.65
2022-09-29T05:56:51.363Z,21.65
2022-09-29T05:59:18.736Z,21.64
2022-09-29T06:01:46.088Z,21.65
2022-09-29T06:04:13.485Z,21.65
2022-09-29T06:06:40.963Z,21.65
2022-09-29T06:09:08.638Z,21.65
2022-09-29T06:11:35.911Z,21.64
2022-09-29T06:14:03.527Z,21.64
2022-09-29T06:16:32.626Z,21.65
2022-09-29T06:19:01.483Z,21.63
2022-09-29T06:21:30.288Z,21.64
2022-09-29T06:23:58.778Z,21.63
2022-09-29T06:26:26.895Z,21.64
2022-09-29T06:28:55.280Z,21.64
2022-09-29T06:31:25.725Z,21.65
2022-09-29T06:33:58.493Z,21.63
2022-09-29T06:36:52.941Z,21.63
2022-09-29T06:39:20.571Z,21.63
2022-09-29T06:41:56.199Z,21.63
2022-09-29T06:44:26.532Z,21.63
2022-09-29T06:46:55.263Z,21.64
2022-09-29T06:49:24.166Z,21.64
2022-09-29T06:51:51.523Z,21.63
2022-09-29T06:54:21.618Z,21.63
2022-09-29T06:56:52.890Z,21.63
2022-09-29T06:59:20.354Z,21.65
2022-09-29T07:01:51.647Z,21.63
2022-09-29T07:04:21.010Z,21.63
2022-09-29T07:06:49.009Z,21.65
2022-09-29T07:09:17.008Z,21.64
2022-09-29T07:11:49.979Z,21.65
2022-09-29T07:14:19.275Z,21.65
2022-09-29T07:16:49.526Z,21.66
2022-09-29T07:19:18.421Z,21.67
2022-09-29T07:21:49.361Z,21.68
2022-09-29T07:24:18.043Z,21.69
2022-09-29T07:26:45.315Z,21.68
2022-09-29T07:29:15.833Z,21.68
2022-09-29T07:31:51.575Z,21.68
2022-09-29T07:34:20.948Z,21.68
2022-09-29T07:36:48.267Z,21.68
2022-09-29T07:39:15.633Z,21.67
2022-09-29T07:41:42.966Z,21.66
2022-09-29T07:44:10.245Z,21.68
2022-09-29T07:46:37.537Z,21.67
2022-09-29T07:49:04.840Z,21.69
2022-09-29T07:51:32.551Z,21.69
2022-09-29T07:54:04.437Z,21.69
2022-09-29T07:56:32.952Z,21.70
2022-09-29T07:59:02.375Z,21.66
2022-09-29T08:01:30.144Z,21.65
2022-09-29T08:03:57.713Z,21.66
2022-09-29T08:06:26.627Z,21.67
2022-09-29T08:09:03.482Z,21.68
2022-09-29T08:11:34.402Z,21.67
2022-09-29T08:14:02.335Z,21.66
2022-09-29T08:16:30.156Z,21.67
2022-09-29T08:18:58.040Z,21.69
2022-09-29T08:21:25.459Z,21.71
2022-09-29T08:23:52.912Z,21.72
2022-09-29T08:26:34.813Z,21.73
2022-09-29T08:29:08.994Z,21.75
2022-09-29T08:31:40.037Z,21.73
2022-09-29T08:34:07.723Z,21.73
2022-09-29T08:36:36.717Z,21.72
2022-09-29T08:39:04.455Z,21.71
2022-09-29T08:41:33.862Z,21.70
2022-09-29T08:44:07.638Z,21.71
2022-09-29T08:46:43.121Z,21.69
2022-09-29T08:49:38.008Z,21.70
2022-09-29T08:52:19.283Z,21.69
2022-09-29T08:54:50.558Z,21.66
2022-09-29T08:57:20.273Z,21.67
2022-09-29T08:59:52.535Z,21.66
2022-09-29T09:02:27.879Z,21.66
2022-09-29T09:05:07.918Z,21.65
2022-09-29T09:07:51.910Z,21.64
2022-09-29T09:10:32.046Z,21.64
2022-09-29T09:13:31.269Z,21.64
2022-09-29T09:16:29.181Z,21.66
2022-09-29T09:19:20.692Z,21.65
2022-09-29T09:22:15.244Z,21.63
2022-09-29T09:24:49.274Z,21.63
2022-09-29T09:27:23.509Z,21.63
2022-09-29T09:30:02.296Z,21.63
2022-09-29T09:32:35.175Z,21.62
2022-09-29T09:35:23.360Z,21.62
2022-09-29T09:37:53.817Z,21.62
2022-09-29T09:40:27.657Z,21.63
2022-09-29T09:42:59.420Z,21.62
2022-09-29T09:45:31.312Z,21.61
2022-09-29T09:48:10.507Z,21.62
2022-09-29T09:50:43.046Z,21.62
2022-09-29T09:53:53.858Z,21.62
2022-09-29T09:56:56.430Z,21.63
2022-09-29T09:59:24.116Z,21.63
2022-09-29T10:01:51.549Z,21.63
2022-09-29T10:04:19.365Z,21.63
2022-09-29T10:06:46.781Z,21.62
2022-09-29T10:09:16.042Z,21.63
2022-09-29T10:11:45.593Z,21.63
2022-09-29T10:14:23.887Z,21.65
2022-09-29T10:17:07.135Z,21.65
2022-09-29T10:19:56.461Z,21.64
2022-09-29T10:22:29.334Z,21.65
2022-09-29T10:25:16.594Z,21.63
2022-09-29T10:27:48.376Z,21.64
2022-09-29T10:30:33.934Z,21.64
2022-09-29T10:33:03.752Z,21.63
2022-09-29T10:35:38.630Z,21.64
2022-09-29T10:38:16.029Z,21.64
2022-09-29T10:41:06.959Z,21.65
2022-09-29T10:43:35.644Z,21.66
2022-09-29T10:46:05.417Z,21.67
2022-09-29T10:48:33.411Z,21.68
2022-09-29T10:51:05.772Z,21.68
2022-09-29T10:53:43.142Z,21.70
2022-09-29T10:56:25.124Z,21.70
2022-09-29T10:59:04.485Z,21.70
2022-09-29T11:01:45.444Z,21.70
2022-09-29T11:04:26.225Z,21.72
2022-09-29T11:06:56.010Z,21.72
2022-09-29T11:09:30.862Z,21.72
2022-09-29T11:12:01.646Z,21.73
2022-09-29T11:14:37.289Z,21.73
2022-09-29T11:17:23.680Z,21.71
2022-09-29T11:19:53.815Z,21.69
2022-09-29T11:22:59.099Z,21.68
2022-09-29T11:25:39.643Z,21.63
2022-09-29T11:28:09.010Z,21.62
2022-09-29T11:30:50.354Z,21.59
2022-09-29T11:33:57.352Z,21.58
2022-09-29T11:37:02.233Z,21.56
2022-09-29T11:39:49.822Z,21.56
2022-09-29T11:42:46.436Z,21.56
2022-09-29T11:48:30.613Z,21.58
2022-09-29T11:51:16.405Z,21.58
2022-09-29T11:53:44.220Z,21.58
2022-09-29T11:56:35.465Z,21.58
2022-09-29T11:59:24.641Z,21.60
2022-09-29T12:02:02.352Z,21.60
2022-09-29T12:04:48.208Z,21.62
2022-09-29T12:07:30.954Z,21.63
2022-09-29T12:10:26.197Z,21.64
2022-09-29T12:13:19.523Z,21.66
2022-09-29T12:15:58.331Z,21.67
2022-09-29T12:18:34.616Z,21.68
2022-09-29T12:21:04.008Z,21.68
2022-09-29T12:23:37.935Z,21.71
2022-09-29T12:26:19.389Z,21.71
2022-09-29T12:29:02.399Z,21.72
2022-09-29T12:31:39.771Z,21.75
2022-09-29T12:34:17.709Z,21.76
2022-09-29T12:37:02.325Z,21.79
2022-09-29T12:39:36.966Z,21.81
2022-09-29T12:42:32.465Z,21.81
2022-09-29T12:45:14.377Z,21.82
2022-09-29T12:48:06.401Z,21.81
2022-09-29T12:50:42.978Z,21.83
2022-09-29T12:53:18.070Z,21.82
2022-09-29T12:55:52.476Z,21.84
2022-09-29T12:58:48.432Z,21.83
2022-09-29T13:01:37.092Z,21.83
2022-09-29T13:04:27.633Z,21.82
2022-09-29T13:07:07.124Z,21.81
2022-09-29T13:09:58.901Z,21.81
2022-09-29T13:12:52.868Z,21.81
2022-09-29T13:15:36.971Z,21.80
2022-09-29T13:18:54.226Z,21.81
2022-09-29T13:21:55.178Z,21.79
2022-09-29T13:24:25.306Z,21.79
2022-09-29T13:27:14.405Z,21.79
2022-09-29T13:30:05.968Z,21.79
2022-09-29T13:32:44.881Z,21.78
2022-09-29T13:35:21.513Z,21.79
2022-09-29T13:38:17.735Z,21.78
2022-09-29T13:41:23.585Z,21.79
2022-09-29T13:43:51.622Z,21.78
2022-09-29T13:46:31.771Z,21.79
2022-09-29T13:49:14.017Z,21.80
2022-09-29T13:51:50.985Z,21.79
2022-09-29T13:54:28.206Z,21.79
2022-09-29T13:57:15.261Z,21.79
2022-09-29T14:00:15.230Z,21.79
2022-09-29T14:03:03.388Z,21.79
2022-09-29T14:05:30.953Z,21.79
2022-09-29T14:07:58.705Z,21.79
2022-09-29T14:10:31.932Z,21.79
2022-09-29T14:13:06.305Z,21.78
2022-09-29T14:15:46.807Z,21.78
2022-09-29T14:18:26.616Z,21.79
2022-09-29T14:21:03.279Z,21.79
2022-09-29T14:23:45.990Z,21.80
2022-09-29T14:26:42.174Z,21.78
2022-09-29T14:29:20.447Z,21.78
2022-09-29T14:31:52.023Z,21.79
2022-09-29T14:34:22.422Z,21.78
2022-09-29T14:36:53.320Z,21.79
2022-09-29T14:39:26.384Z,21.78
2022-09-29T14:41:54.443Z,21.79
2022-09-29T14:44:55.680Z,21.78
2022-09-29T14:47:44.779Z,21.79
2022-09-29T14:50:43.230Z,21.77
2022-09-29T14:53:13.544Z,21.78
2022-09-29T14:56:07.923Z,21.77
2022-09-29T14:58:42.812Z,21.77
2022-09-29T15:01:22.748Z,21.78
2022-09-29T15:03:52.896Z,21.77
2022-09-29T15:06:23.923Z,21.77
2022-09-29T15:08:54.565Z,21.77
2022-09-29T15:11:29.428Z,21.78
2022-09-29T15:13:58.896Z,21.77
2022-09-29T15:16:33.194Z,21.77
2022-09-29T15:19:25.374Z,21.77
2022-09-29T15:22:14.458Z,21.76
2022-09-29T15:25:17.811Z,21.76
2022-09-29T15:27:50.027Z,21.77
2022-09-29T15:30:20.353Z,21.77
2022-09-29T15:32:49.744Z,21.77
2022-09-29T15:35:24.212Z,21.76
2022-09-29T15:37:54.934Z,21.76
2022-09-29T15:40:25.423Z,21.75
2022-09-29T15:42:54.600Z,21.76
2022-09-29T15:45:27.483Z,21.77
2022-09-29T15:48:06.254Z,21.76
2022-09-29T15:50:41.598Z,21.76
2022-09-29T15:53:11.261Z,21.76
2022-09-29T15:55:39.022Z,21.75
2022-09-29T15:58:31.165Z,21.75
2022-09-29T16:01:06.374Z,21.76
2022-09-29T16:03:57.712Z,21.75
2022-09-29T16:06:39.757Z,21.75
2022-09-29T16:09:19.301Z,21.74
2022-09-29T16:11:47.016Z,21.74
2022-09-29T16:14:23.807Z,21.74
2022-09-29T16:16:53.967Z,21.73
2022-09-29T16:19:28.454Z,21.71
2022-09-29T16:22:02.896Z,21.69
2022-09-29T16:24:52.066Z,21.67
2022-09-29T16:27:41.188Z,21.65
2022-09-29T16:30:22.103Z,21.63
2022-09-29T16:33:02.888Z,21.63
2022-09-29T16:35:56.407Z,21.63
2022-09-29T16:38:26.508Z,21.60
2022-09-29T16:40:56.869Z,21.62
2022-09-29T16:43:33.487Z,21.61
2022-09-29T16:46:03.553Z,21.61
2022-09-29T16:48:36.804Z,21.61
2022-09-29T16:51:27.738Z,21.61
2022-09-29T16:53:59.974Z,21.62
2022-09-29T16:56:35.550Z,21.62
2022-09-29T16:59:23.184Z,21.60
2022-09-29T17:01:52.544Z,21.62
2022-09-29T17:04:20.023Z,21.60
2022-09-29T17:06:48.452Z,21.58
2022-09-29T17:09:20.183Z,21.58
2022-09-29T17:11:48.684Z,21.58
2022-09-29T17:14:18.587Z,21.57
2022-09-29T17:16:46.020Z,21.57
2022-09-29T17:19:13.343Z,21.58
2022-09-29T17:21:40.679Z,21.56
2022-09-29T17:24:07.972Z,21.55
2022-09-29T17:27:05.133Z,21.53
2022-09-29T17:29:33.646Z,21.52
2022-09-29T17:32:02.200Z,21.53
2022-09-29T17:34:30.039Z,21.53
2022-09-29T17:37:02.032Z,21.53
2022-09-29T17:39:29.523Z,21.51
2022-09-29T17:41:59.301Z,21.52
2022-09-29T17:44:27.598Z,21.51
2022-09-29T17:47:05.531Z,21.51
2022-09-29T17:49:50.795Z,21.52
2022-09-29T17:52:19.724Z,21.49
2022-09-29T17:54:47.308Z,21.51
2022-09-29T17:57:27.809Z,21.52
2022-09-29T17:59:55.330Z,21.53
2022-09-29T18:02:24.206Z,21.54
2022-09-29T18:04:51.496Z,21.56
2022-09-29T18:07:18.817Z,21.57
2022-09-29T18:09:47.301Z,21.58
2022-09-29T18:12:14.650Z,21.58
2022-09-29T18:14:41.856Z,21.60
2022-09-29T18:17:09.552Z,21.61
2022-09-29T18:19:39.387Z,21.61
2022-09-29T18:22:07.990Z,21.63
2022-09-29T18:24:35.237Z,21.62
2022-09-29T18:27:02.614Z,21.64
2022-09-29T18:29:31.713Z,21.64
2022-09-29T18:31:59.618Z,21.65
2022-09-29T18:34:30.656Z,21.65
2022-09-29T18:36:57.961Z,21.66
2022-09-29T18:39:25.199Z,21.68
2022-09-29T18:41:52.414Z,21.67
2022-09-29T18:44:23.359Z,21.68
2022-09-29T18:46:50.684Z,21.69
2022-09-29T18:49:18.075Z,21.69
2022-09-29T18:51:45.741Z,21.69
2022-09-29T18:54:13.443Z,21.71
2022-09-29T18:56:40.777Z,21.70
2022-09-29T18:59:11.479Z,21.71
2022-09-29T19:01:40.316Z,21.71
2022-09-29T19:04:09.229Z,21.72
2022-09-29T19:06:36.550Z,21.72
2022-09-29T19:09:03.960Z,21.72
2022-09-29T19:11:32.244Z,21.73
2022-09-29T19:13:59.577Z,21.73
2022-09-29T19:16:28.264Z,21.73
2022-09-29T19:18:55.865Z,21.73
2022-09-29T19:21:23.592Z,21.74
2022-09-29T19:23:50.847Z,21.75
2022-09-29T19:26:22.526Z,21.76
2022-09-29T19:28:51.050Z,21.75
2022-09-29T19:31:21.010Z,21.76
2022-09-29T19:33:48.974Z,21.76
2022-09-29T19:36:20.491Z,21.76
2022-09-29T19:38:47.853Z,21.77
2022-09-29T19:41:18.705Z,21.76
2022-09-29T19:43:47.570Z,21.78
2022-09-29T19:46:16.319Z,21.79
2022-09-29T19:48:44.112Z,21.78
2022-09-29T19:51:35.264Z,21.78
2022-09-29T19:54:17.062Z,21.79
2022-09-29T19:56:59.847Z,21.79
2022-09-29T19:59:33.198Z,21.79
2022-09-29T20:02:02.167Z,21.80
2022-09-29T20:04:33.266Z,21.79
2022-09-29T20:07:01.933Z,21.80
2022-09-29T20:09:29.845Z,21.79
2022-09-29T20:11:57.549Z,21.80
2022-09-29T20:14:26.297Z,21.81
2022-09-29T20:16:56.862Z,21.81
2022-09-29T20:19:24.659Z,21.82
2022-09-29T20:21:53.373Z,21.81
2022-09-29T20:24:24.125Z,21.81
2022-09-29T20:26:57.606Z,21.80
2022-09-29T20:29:25.718Z,21.81
2022-09-29T20:31:53.860Z,21.81
2022-09-29T20:34:22.536Z,21.81
2022-09-29T20:36:54.472Z,21.82
2022-09-29T20:39:24.646Z,21.82
2022-09-29T20:41:54.352Z,21.83
2022-09-29T20:44:25.918Z,21.82
2022-09-29T20:46:57.442Z,21.83
2022-09-29T20:49:26.186Z,21.82
2022-09-29T20:51:54.001Z,21.84
2022-09-29T20:54:21.621Z,21.84
2022-09-29T20:56:50.892Z,21.83
2022-09-29T20:59:20.408Z,21.83
2022-09-29T21:01:48.861Z,21.84
2022-09-29T21:04:19.356Z,21.84
2022-09-29T21:06:49.418Z,21.85
2022-09-29T21:09:20.230Z,21.85
2022-09-29T21:11:48.156Z,21.84
2022-09-29T21:14:21.422Z,21.87
2022-09-29T21:16:51.171Z,21.85
2022-09-29T21:19:26.180Z,21.87
2022-09-29T21:21:55.124Z,21.86
2022-09-29T21:24:22.837Z,21.86
2022-09-29T21:26:50.230Z,21.88
2022-09-29T21:29:18.986Z,21.87
2022-09-29T21:31:47.365Z,21.87
2022-09-29T21:34:15.208Z,21.86
2022-09-29T21:36:42.555Z,21.87
2022-09-29T21:39:10.824Z,21.88
2022-09-29T21:41:41.045Z,21.87
2022-09-29T21:44:17.856Z,21.87
2022-09-29T21:46:45.935Z,21.88
2022-09-29T21:49:16.086Z,21.88
2022-09-29T21:51:52.385Z,21.87
2022-09-29T21:54:22.772Z,21.87
2022-09-29T21:56:52.136Z,21.88
2022-09-29T21:59:22.496Z,21.87
2022-09-29T22:01:52.201Z,21.88
2022-09-29T22:04:20.826Z,21.87
2022-09-29T22:06:48.178Z,21.87
2022-09-29T22:09:20.996Z,21.88
2022-09-29T22:11:50.020Z,21.86
2022-09-29T22:14:18.219Z,21.86
2022-09-29T22:16:45.838Z,21.87
2022-09-29T22:19:29.515Z,21.87
2022-09-29T22:21:57.060Z,21.87
2022-09-29T22:24:26.536Z,21.87
2022-09-29T22:26:54.684Z,21.88
2022-09-29T22:29:21.977Z,21.87
2022-09-29T22:31:49.342Z,21.87
2022-09-29T22:34:17.341Z,21.88
2022-09-29T22:36:45.231Z,21.88
2022-09-29T22:39:13.364Z,21.88
2022-09-29T22:41:41.357Z,21.88
2022-09-29T22:44:09.024Z,21.87
2022-09-29T22:46:36.916Z,21.88
2022-09-29T22:49:04.396Z,21.87
2022-09-29T22:51:31.688Z,21.87
2022-09-29T22:53:59.701Z,21.87
2022-09-29T22:56:30.008Z,21.87
2022-09-29T22:59:02.616Z,21.86
2022-09-29T23:01:30.625Z,21.87
2022-09-29T23:03:58.070Z,21.86
2022-09-29T23:06:25.560Z,21.86
2022-09-29T23:08:55.302Z,21.85
2022-09-29T23:11:23.046Z,21.85
2022-09-29T23:13:50.394Z,21.86
2022-09-29T23:16:17.997Z,21.86
2022-09-29T23:18:47.290Z,21.85
2022-09-29T23:21:19.080Z,21.85
2022-09-29T23:23:48.169Z,21.85
2022-09-29T23:26:16.394Z,21.86
2022-09-29T23:28:43.730Z,21.84
2022-09-29T23:31:11.541Z,21.85
2022-09-29T23:33:39.234Z,21.84
2022-09-29T23:36:13.225Z,21.85
2022-09-29T23:39:01.446Z,21.84
2022-09-29T23:41:30.408Z,21.84
2022-09-29T23:44:00.286Z,21.84
2022-09-29T23:46:32.146Z,21.85
2022-09-29T23:49:01.236Z,21.84
2022-09-29T23:51:33.094Z,21.84
2022-09-29T23:54:00.362Z,21.83
2022-09-29T23:56:28.326Z,21.83
2022-09-29T23:58:55.708Z,21.84
